createdAt,value
2023-02-03T00:02:03.543Z,-1.99
2023-02-03T00:04:30.043Z,-1.91
2023-02-03T00:06:56.831Z,-1.94
2023-02-03T00:09:23.389Z,-2.01
2023-02-03T00:11:49.943Z,-2.08
2023-02-03T00:14:17.264Z,-2.00
2023-02-03T00:16:43.876Z,-1.97
2023-02-03T00:19:10.383Z,-1.96
2023-02-03T00:21:36.831Z,-1.97
2023-02-03T00:24:03.396Z,-1.94
2023-02-03T00:26:29.966Z,-1.89
2023-02-03T00:28:56.545Z,-1.89
2023-02-03T00:31:24.549Z,-1.92
2023-02-03T00:33:56.284Z,-1.91
2023-02-03T00:36:23.470Z,-1.93
2023-02-03T00:38:50.173Z,-1.92
2023-02-03T00:41:17.325Z,-2.01
2023-02-03T00:43:44.253Z,-1.95
2023-02-03T00:46:10.892Z,-1.88
2023-02-03T00:48:37.429Z,-1.95
2023-02-03T00:51:04.047Z,-1.89
2023-02-03T00:53:30.544Z,-1.83
2023-02-03T00:55:57.016Z,-1.90
2023-02-03T00:58:23.482Z,-1.83
2023-02-03T01:00:50.043Z,-1.88
2023-02-03T01:03:16.838Z,-1.78
2023-02-03T01:05:43.313Z,-1.82
2023-02-03T01:08:09.728Z,-1.83
2023-02-03T01:10:38.540Z,-1.82
2023-02-03T01:13:05.007Z,-1.75
2023-02-03T01:15:31.495Z,-1.76
2023-02-03T01:17:57.981Z,-1.77
2023-02-03T01:20:24.761Z,-1.73
2023-02-03T01:22:51.447Z,-1.69
2023-02-03T01:25:18.047Z,-1.75
2023-02-03T01:27:44.559Z,-1.74
2023-02-03T01:30:11.556Z,-1.72
2023-02-03T01:32:38.028Z,-1.70
2023-02-03T01:35:04.788Z,-1.80
2023-02-03T01:37:31.403Z,-1.82
2023-02-03T01:39:57.892Z,-1.78
2023-02-03T01:42:24.451Z,-1.75
2023-02-03T01:44:52.139Z,-1.76
2023-02-03T01:47:33.520Z,-1.77
2023-02-03T01:50:09.267Z,-1.84
2023-02-03T01:52:36.913Z,-1.82
2023-02-03T01:55:08.019Z,-1.81
2023-02-03T01:57:40.225Z,-1.88
2023-02-03T02:00:08.056Z,-1.87
2023-02-03T02:02:34.711Z,-1.90
2023-02-03T02:08:30.843Z,-1.94
2023-02-03T02:10:59.358Z,-1.92
2023-02-03T02:13:27.263Z,-1.88
2023-02-03T02:16:16.092Z,-1.90
2023-02-03T02:19:04.295Z,-1.90
2023-02-03T02:21:59.639Z,-1.98
2023-02-03T02:24:44.355Z,-1.94
2023-02-03T02:27:19.582Z,-1.95
2023-02-03T02:29:48.770Z,-2.06
2023-02-03T02:32:31.277Z,-2.02
2023-02-03T02:35:50.813Z,-2.04
2023-02-03T02:38:53.102Z,-2.10
2023-02-03T02:41:27.806Z,-2.02
2023-02-03T02:44:17.774Z,-2.14
2023-02-03T02:46:54.162Z,-2.23
2023-02-03T02:49:32.738Z,-2.23
2023-02-03T02:52:04.059Z,-2.19
2023-02-03T02:54:33.584Z,-2.11
2023-02-03T02:57:03.310Z,-2.06
2023-02-03T02:59:29.933Z,-2.05
2023-02-03T03:01:56.476Z,-2.15
2023-02-03T03:04:26.974Z,-2.09
2023-02-03T03:06:58.642Z,-2.17
2023-02-03T03:09:36.688Z,-2.16
2023-02-03T03:12:07.135Z,-2.13
2023-02-03T03:14:36.441Z,-2.14
2023-02-03T03:17:06.342Z,-2.12
2023-02-03T03:19:39.803Z,-2.13
2023-02-03T03:22:11.501Z,-2.13
2023-02-03T03:24:43.762Z,-2.16
2023-02-03T03:27:14.143Z,-2.10
2023-02-03T03:29:44.490Z,-2.08
2023-02-03T03:32:11.317Z,-2.12
2023-02-03T03:34:38.027Z,-2.09
2023-02-03T03:37:17.365Z,-2.08
2023-02-03T03:39:52.352Z,-2.03
2023-02-03T03:42:24.859Z,-2.04
2023-02-03T03:44:59.333Z,-2.03
2023-02-03T03:47:57.086Z,-2.00
2023-02-03T03:50:47.430Z,-2.01
2023-02-03T03:53:16.925Z,-2.01
2023-02-03T03:55:48.788Z,-1.97
2023-02-03T03:58:28.512Z,-1.90
2023-02-03T04:00:58.039Z,-1.88
2023-02-03T04:03:31.153Z,-1.84
2023-02-03T04:05:57.657Z,-1.82
2023-02-03T04:08:24.181Z,-1.75
2023-02-03T04:10:50.671Z,-1.69
2023-02-03T04:13:20.098Z,-1.69
2023-02-03T04:15:46.855Z,-1.68
2023-02-03T04:18:14.982Z,-1.73
2023-02-03T04:20:42.031Z,-1.69
2023-02-03T04:23:09.056Z,-1.61
2023-02-03T04:25:35.542Z,-1.58
2023-02-03T04:28:02.154Z,-1.52
2023-02-03T04:30:28.913Z,-1.50
2023-02-03T04:32:55.641Z,-1.45
2023-02-03T04:35:22.216Z,-1.43
2023-02-03T04:37:48.772Z,-1.41
2023-02-03T04:40:15.692Z,-1.35
2023-02-03T04:42:42.462Z,-1.28
2023-02-03T04:45:10.741Z,-1.29
2023-02-03T04:47:37.692Z,-1.21
2023-02-03T04:50:04.323Z,-1.05
2023-02-03T04:52:30.933Z,-0.99
2023-02-03T04:54:57.445Z,-0.88
2023-02-03T04:57:24.088Z,-0.88
2023-02-03T04:59:50.745Z,-0.83
2023-02-03T05:02:17.232Z,-0.74
2023-02-03T05:04:43.862Z,-0.66
2023-02-03T05:07:10.485Z,-0.55
2023-02-03T05:09:37.118Z,-0.55
2023-02-03T05:12:03.922Z,-0.53
2023-02-03T05:14:30.555Z,-0.48
2023-02-03T05:16:57.142Z,-0.38
2023-02-03T05:19:23.693Z,-0.36
2023-02-03T05:21:50.748Z,-0.31
2023-02-03T05:24:17.268Z,-0.21
2023-02-03T05:26:43.668Z,-0.05
2023-02-03T05:29:11.727Z,0.11
2023-02-03T05:31:38.336Z,0.14
2023-02-03T05:34:04.995Z,0.25
2023-02-03T05:36:31.440Z,0.28
2023-02-03T05:38:57.981Z,0.35
2023-02-03T05:41:43.036Z,0.37
2023-02-03T05:44:09.541Z,0.49
2023-02-03T05:46:35.984Z,0.49
2023-02-03T05:49:02.420Z,0.57
2023-02-03T05:51:28.948Z,0.60
2023-02-03T05:53:55.411Z,0.76
2023-02-03T05:56:21.946Z,0.67
2023-02-03T05:58:48.500Z,0.78
2023-02-03T06:01:15.076Z,0.83
2023-02-03T06:03:43.253Z,0.90
2023-02-03T06:06:11.026Z,0.90
2023-02-03T06:08:37.488Z,0.97
2023-02-03T06:11:04.043Z,1.00
2023-02-03T06:13:30.522Z,1.05
2023-02-03T06:15:57.302Z,1.07
2023-02-03T06:18:23.755Z,1.14
2023-02-03T06:20:50.893Z,1.12
2023-02-03T06:23:19.061Z,1.16
2023-02-03T06:25:48.502Z,1.22
2023-02-03T06:28:15.067Z,1.28
2023-02-03T06:30:41.660Z,1.27
2023-02-03T06:33:08.574Z,1.31
2023-02-03T06:35:36.597Z,1.39
2023-02-03T06:38:03.067Z,1.33
2023-02-03T06:40:30.086Z,1.31
2023-02-03T06:42:56.861Z,1.38
2023-02-03T06:45:24.885Z,1.43
2023-02-03T06:47:51.362Z,1.43
2023-02-03T06:50:18.083Z,1.41
2023-02-03T06:52:45.095Z,1.59
2023-02-03T06:55:11.716Z,1.54
2023-02-03T06:57:45.510Z,1.49
2023-02-03T07:00:15.065Z,1.57
2023-02-03T07:02:43.094Z,1.57
2023-02-03T07:05:09.795Z,1.57
2023-02-03T07:07:36.897Z,1.60
2023-02-03T07:10:03.681Z,1.62
2023-02-03T07:12:31.328Z,1.67
2023-02-03T07:14:57.876Z,1.68
2023-02-03T07:17:24.408Z,1.72
2023-02-03T07:19:50.861Z,1.75
2023-02-03T07:22:17.329Z,1.74
2023-02-03T07:24:43.801Z,1.77
2023-02-03T07:27:10.917Z,1.81
2023-02-03T07:29:37.380Z,1.84
2023-02-03T07:32:04.065Z,1.84
2023-02-03T07:34:30.935Z,1.87
2023-02-03T07:36:57.567Z,1.82
2023-02-03T07:39:24.121Z,1.92
2023-02-03T07:41:50.990Z,1.91
2023-02-03T07:44:17.585Z,2.00
2023-02-03T07:46:45.479Z,2.00
2023-02-03T07:49:12.688Z,1.96
2023-02-03T07:51:39.448Z,1.95
2023-02-03T07:54:06.383Z,2.01
2023-02-03T07:56:33.352Z,2.01
2023-02-03T07:58:59.898Z,2.02
2023-02-03T08:01:26.767Z,2.10
2023-02-03T08:03:55.117Z,2.05
2023-02-03T08:06:22.206Z,2.05
2023-02-03T08:08:48.663Z,2.05
2023-02-03T08:11:15.141Z,2.12
2023-02-03T08:13:41.787Z,2.10
2023-02-03T08:16:08.348Z,2.14
2023-02-03T08:18:34.838Z,2.18
2023-02-03T08:21:03.645Z,2.15
2023-02-03T08:23:31.088Z,2.19
2023-02-03T08:25:57.685Z,2.12
2023-02-03T08:28:24.154Z,2.16
2023-02-03T08:30:50.770Z,2.09
2023-02-03T08:33:17.444Z,2.16
2023-02-03T08:35:48.814Z,2.16
2023-02-03T08:38:15.730Z,2.22
2023-02-03T08:40:42.354Z,2.18
2023-02-03T08:43:09.181Z,2.20
2023-02-03T08:45:35.855Z,2.23
2023-02-03T08:48:02.508Z,2.25
2023-02-03T08:50:29.396Z,2.28
2023-02-03T08:52:56.061Z,2.31
2023-02-03T08:55:22.737Z,2.30
2023-02-03T08:57:49.201Z,2.31
2023-02-03T09:00:16.239Z,2.29
2023-02-03T09:02:42.768Z,2.32
2023-02-03T09:05:09.905Z,2.29
2023-02-03T09:07:36.438Z,2.34
2023-02-03T09:10:05.472Z,2.38
2023-02-03T09:12:31.947Z,2.36
2023-02-03T09:14:58.476Z,2.36
2023-02-03T09:17:24.938Z,2.41
2023-02-03T09:19:51.471Z,2.48
2023-02-03T09:22:17.937Z,2.47
2023-02-03T09:24:44.484Z,2.48
2023-02-03T09:27:10.962Z,2.50
2023-02-03T09:29:37.817Z,2.51
2023-02-03T09:32:08.693Z,2.54
2023-02-03T09:34:35.485Z,2.55
2023-02-03T09:37:02.082Z,2.58
2023-02-03T09:39:28.772Z,2.53
2023-02-03T09:42:25.259Z,2.59
2023-02-03T09:44:54.845Z,2.61
2023-02-03T09:47:29.412Z,2.71
2023-02-03T09:49:59.325Z,2.71
2023-02-03T09:52:32.311Z,2.74
2023-02-03T09:55:16.780Z,2.70
2023-02-03T09:57:51.343Z,2.73
2023-02-03T10:00:26.560Z,2.70
2023-02-03T10:02:56.645Z,2.74
2023-02-03T10:05:54.951Z,2.79
2023-02-03T10:08:24.187Z,2.81
2023-02-03T10:11:12.207Z,2.81
2023-02-03T10:13:56.389Z,2.83
2023-02-03T10:16:44.525Z,2.89
2023-02-03T10:19:17.097Z,2.89
2023-02-03T10:21:51.522Z,3.03
2023-02-03T10:24:30.338Z,3.07
2023-02-03T10:26:57.486Z,3.06
2023-02-03T10:29:32.837Z,3.02
2023-02-03T10:32:00.387Z,3.03
2023-02-03T10:34:27.034Z,3.05
2023-02-03T10:37:09.499Z,3.05
2023-02-03T10:39:46.616Z,3.02
2023-02-03T10:42:13.862Z,3.08
2023-02-03T10:45:00.942Z,3.13
2023-02-03T10:47:29.445Z,3.13
2023-02-03T10:49:57.913Z,3.17
2023-02-03T10:52:35.499Z,3.09
2023-02-03T10:55:07.350Z,2.87
2023-02-03T10:57:39.198Z,2.79
2023-02-03T11:00:16.771Z,2.81
2023-02-03T11:02:43.531Z,2.69
2023-02-03T11:05:21.637Z,2.66
2023-02-03T11:07:49.005Z,2.69
2023-02-03T11:10:36.309Z,2.61
2023-02-03T11:13:13.930Z,2.67
2023-02-03T11:15:45.602Z,2.64
2023-02-03T11:18:35.818Z,2.69
2023-02-03T11:21:11.944Z,2.59
2023-02-03T11:23:47.757Z,2.67
2023-02-03T11:26:18.733Z,2.73
2023-02-03T11:28:48.008Z,2.68
2023-02-03T11:31:21.004Z,2.63
2023-02-03T11:33:50.781Z,2.56
2023-02-03T11:36:18.707Z,2.54
2023-02-03T11:38:45.336Z,2.58
2023-02-03T11:41:37.177Z,2.54
2023-02-03T11:44:12.107Z,2.63
2023-02-03T11:46:40.350Z,2.66
2023-02-03T11:49:35.344Z,2.76
2023-02-03T11:52:13.572Z,3.65
2023-02-03T11:55:06.139Z,4.45
2023-02-03T11:57:51.076Z,4.57
2023-02-03T12:00:35.447Z,4.53
2023-02-03T12:03:05.008Z,4.04
2023-02-03T12:06:08.165Z,4.36
2023-02-03T12:08:44.787Z,4.62
2023-02-03T12:11:13.983Z,4.44
2023-02-03T12:13:52.330Z,4.64
2023-02-03T12:16:38.641Z,5.21
2023-02-03T12:19:32.478Z,5.31
2023-02-03T12:22:31.033Z,5.58
2023-02-03T12:25:21.896Z,5.78
2023-02-03T12:27:54.310Z,5.33
2023-02-03T12:30:39.205Z,4.97
2023-02-03T12:33:23.308Z,4.74
2023-02-03T12:35:59.673Z,4.76
2023-02-03T12:38:49.482Z,4.92
2023-02-03T12:41:26.805Z,5.57
2023-02-03T12:43:58.384Z,5.42
2023-02-03T12:46:30.535Z,4.96
2023-02-03T12:49:02.758Z,4.50
2023-02-03T12:51:41.262Z,4.26
2023-02-03T12:54:55.448Z,3.93
2023-02-03T12:57:29.388Z,3.84
2023-02-03T13:00:50.203Z,3.60
2023-02-03T13:03:28.877Z,3.48
2023-02-03T13:06:19.801Z,3.07
2023-02-03T13:09:05.539Z,2.73
2023-02-03T13:11:40.806Z,2.75
2023-02-03T13:14:12.976Z,2.68
2023-02-03T13:16:44.581Z,2.48
2023-02-03T13:19:18.727Z,2.33
2023-02-03T13:21:47.803Z,2.21
2023-02-03T13:24:14.373Z,1.93
2023-02-03T13:26:48.596Z,1.83
2023-02-03T13:29:36.171Z,1.65
2023-02-03T13:32:14.667Z,1.49
2023-02-03T13:34:59.383Z,1.42
2023-02-03T13:37:47.370Z,1.55
2023-02-03T13:40:28.480Z,1.64
2023-02-03T13:43:06.476Z,1.75
2023-02-03T13:45:40.722Z,1.85
2023-02-03T13:48:14.357Z,1.89
2023-02-03T13:50:41.394Z,1.93
2023-02-03T13:53:16.513Z,1.98
2023-02-03T13:55:51.975Z,1.99
2023-02-03T13:58:28.285Z,1.90
2023-02-03T14:00:56.406Z,1.83
2023-02-03T14:03:29.089Z,1.99
2023-02-03T14:05:57.316Z,2.02
2023-02-03T14:08:26.744Z,2.02
2023-02-03T14:11:30.402Z,1.92
2023-02-03T14:14:20.721Z,1.98
2023-02-03T14:16:54.629Z,2.04
2023-02-03T14:19:21.351Z,2.05
2023-02-03T14:21:58.776Z,2.05
2023-02-03T14:24:41.890Z,2.11
2023-02-03T14:27:21.629Z,2.15
2023-02-03T14:30:09.277Z,2.14
2023-02-03T14:32:54.351Z,2.15
2023-02-03T14:35:25.504Z,2.20
2023-02-03T14:37:55.035Z,2.20
2023-02-03T14:40:53.790Z,2.29
2023-02-03T14:43:32.478Z,2.30
2023-02-03T14:46:13.569Z,2.45
2023-02-03T14:48:42.848Z,2.60
2023-02-03T14:51:20.176Z,2.60
2023-02-03T14:54:18.011Z,2.57
2023-02-03T14:57:31.541Z,2.67
2023-02-03T15:00:00.212Z,2.62
2023-02-03T15:02:31.029Z,2.62
2023-02-03T15:05:12.830Z,2.66
2023-02-03T15:07:46.265Z,2.66
2023-02-03T15:10:19.626Z,2.62
2023-02-03T15:12:47.566Z,2.58
2023-02-03T15:15:21.939Z,2.59
2023-02-03T15:17:50.310Z,2.56
2023-02-03T15:20:41.344Z,2.60
2023-02-03T15:23:22.916Z,2.56
2023-02-03T15:25:59.945Z,2.53
2023-02-03T15:28:29.045Z,2.50
2023-02-03T15:31:01.593Z,2.52
2023-02-03T15:33:31.484Z,2.54
2023-02-03T15:36:15.910Z,2.49
2023-02-03T15:38:49.437Z,2.41
2023-02-03T15:41:24.793Z,2.41
2023-02-03T15:44:32.912Z,2.35
2023-02-03T15:47:01.507Z,2.44
2023-02-03T15:49:40.186Z,2.39
2023-02-03T15:52:09.572Z,2.35
2023-02-03T15:54:45.652Z,2.37
2023-02-03T15:57:24.639Z,2.35
2023-02-03T15:59:55.990Z,2.33
2023-02-03T16:02:33.303Z,2.34
2023-02-03T16:05:06.093Z,2.32
2023-02-03T16:07:32.731Z,2.31
2023-02-03T16:09:59.930Z,2.32
2023-02-03T16:12:34.425Z,2.35
2023-02-03T16:15:01.921Z,2.33
2023-02-03T16:17:29.921Z,2.28
2023-02-03T16:20:11.323Z,2.33
2023-02-03T16:22:46.819Z,2.29
2023-02-03T16:25:28.149Z,2.27
2023-02-03T16:28:19.693Z,2.27
2023-02-03T16:31:33.197Z,2.29
2023-02-03T16:34:20.052Z,2.28
2023-02-03T16:37:05.601Z,2.27
2023-02-03T16:39:50.288Z,2.29
2023-02-03T16:42:37.965Z,2.25
2023-02-03T16:45:32.214Z,2.30
2023-02-03T16:48:17.461Z,2.29
2023-02-03T16:50:53.490Z,2.26
2023-02-03T16:53:24.194Z,2.30
2023-02-03T16:55:52.447Z,2.28
2023-02-03T16:58:18.949Z,2.34
2023-02-03T17:00:47.385Z,2.28
2023-02-03T17:03:16.579Z,2.31
2023-02-03T17:05:45.436Z,2.33
2023-02-03T17:08:12.732Z,2.31
2023-02-03T17:10:41.907Z,2.31
2023-02-03T17:13:09.210Z,2.28
2023-02-03T17:15:44.395Z,2.36
2023-02-03T17:18:11.380Z,2.30
2023-02-03T17:20:38.019Z,2.35
2023-02-03T17:23:04.504Z,2.34
2023-02-03T17:25:36.032Z,2.35
2023-02-03T17:28:07.231Z,2.33
2023-02-03T17:30:35.107Z,2.36
2023-02-03T17:33:03.204Z,2.38
2023-02-03T17:35:30.024Z,2.34
2023-02-03T17:37:56.753Z,2.38
2023-02-03T17:54:06.699Z,2.30
2023-02-03T17:56:35.598Z,2.30
2023-02-03T17:59:04.298Z,2.27
2023-02-03T18:01:31.745Z,2.30
2023-02-03T18:04:00.982Z,2.28
2023-02-03T18:06:29.825Z,2.33
2023-02-03T18:09:01.259Z,2.33
2023-02-03T18:11:29.222Z,2.33
2023-02-03T18:13:56.251Z,2.34
2023-02-03T18:16:26.464Z,2.31
2023-02-03T18:18:53.720Z,2.35
2023-02-03T18:21:22.125Z,2.32
2023-02-03T18:23:49.453Z,2.36
2023-02-03T18:26:15.941Z,2.37
2023-02-03T18:28:42.425Z,2.41
2023-02-03T18:31:11.959Z,2.32
2023-02-03T18:33:38.770Z,2.37
2023-02-03T18:36:06.494Z,2.41
2023-02-03T18:38:34.739Z,2.41
2023-02-03T18:41:08.786Z,2.42
2023-02-03T18:43:35.963Z,2.35
2023-02-03T18:46:10.409Z,2.41
2023-02-03T18:48:37.425Z,2.40
2023-02-03T18:51:08.473Z,2.37
2023-02-03T18:53:35.973Z,2.38
2023-02-03T18:56:06.381Z,2.37
2023-02-03T18:58:33.436Z,2.38
2023-02-03T19:01:00.601Z,2.39
2023-02-03T19:03:27.381Z,2.41
2023-02-03T19:05:54.237Z,2.40
2023-02-03T19:08:20.942Z,2.38
2023-02-03T19:10:51.714Z,2.34
2023-02-03T19:13:19.627Z,2.40
2023-02-03T19:15:48.270Z,2.30
2023-02-03T19:18:15.729Z,2.31
2023-02-03T19:20:43.836Z,2.33
2023-02-03T19:23:13.093Z,2.26
2023-02-03T19:25:40.026Z,2.24
2023-02-03T19:28:14.181Z,2.20
2023-02-03T19:30:44.328Z,2.21
2023-02-03T19:33:10.792Z,2.20
2023-02-03T19:35:37.243Z,2.23
2023-02-03T19:38:03.650Z,2.18
2023-02-03T19:40:30.800Z,2.28
2023-02-03T19:42:57.488Z,2.12
2023-02-03T19:45:23.983Z,2.10
2023-02-03T19:47:50.407Z,2.09
2023-02-03T19:50:17.315Z,2.04
2023-02-03T19:52:43.855Z,1.99
2023-02-03T19:55:10.359Z,2.03
2023-02-03T19:57:36.830Z,2.02
2023-02-03T20:00:03.682Z,1.99
2023-02-03T20:02:30.099Z,2.03
2023-02-03T20:04:57.533Z,1.99
2023-02-03T20:07:25.281Z,2.02
2023-02-03T20:09:51.804Z,1.97
2023-02-03T20:12:18.211Z,1.99
2023-02-03T20:14:44.662Z,1.99
2023-02-03T20:17:11.128Z,1.95
2023-02-03T20:19:37.539Z,1.97
2023-02-03T20:22:04.095Z,1.95
2023-02-03T20:24:30.547Z,1.99
2023-02-03T20:26:57.028Z,2.00
2023-02-03T20:29:23.548Z,2.01
2023-02-03T20:31:50.857Z,2.06
2023-02-03T20:34:18.910Z,2.01
2023-02-03T20:36:45.386Z,2.01
2023-02-03T20:39:18.193Z,2.01
2023-02-03T20:41:45.123Z,1.89
2023-02-03T20:44:14.444Z,1.83
2023-02-03T20:46:41.577Z,1.83
2023-02-03T20:49:16.880Z,1.83
2023-02-03T20:51:43.322Z,1.82
2023-02-03T20:54:18.429Z,1.87
2023-02-03T20:56:45.503Z,1.82
2023-02-03T20:59:13.431Z,1.79
2023-02-03T21:01:39.993Z,1.82
2023-02-03T21:04:33.775Z,1.77
2023-02-03T21:07:01.458Z,1.78
2023-02-03T21:09:27.865Z,1.73
2023-02-03T21:11:55.341Z,1.69
2023-02-03T21:14:29.296Z,1.70
2023-02-03T21:16:55.706Z,1.68
2023-02-03T21:19:33.581Z,1.69
2023-02-03T21:22:14.836Z,1.69
2023-02-03T21:24:45.615Z,1.74
2023-02-03T21:27:24.321Z,1.62
2023-02-03T21:29:51.853Z,1.42
2023-02-03T21:32:18.275Z,1.15
2023-02-03T21:34:45.690Z,0.99
2023-02-03T21:37:21.187Z,0.86
2023-02-03T21:39:48.953Z,0.77
2023-02-03T21:42:43.548Z,0.56
2023-02-03T21:45:21.882Z,0.51
2023-02-03T21:47:51.812Z,0.35
2023-02-03T21:50:31.217Z,0.42
2023-02-03T21:53:10.349Z,0.36
2023-02-03T21:55:38.773Z,0.22
2023-02-03T21:58:32.325Z,0.17
2023-02-03T22:01:00.867Z,0.28
2023-02-03T22:03:36.316Z,0.29
2023-02-03T22:06:08.713Z,0.23
2023-02-03T22:08:41.526Z,0.24
2023-02-03T22:11:08.551Z,0.14
2023-02-03T22:13:35.170Z,0.16
2023-02-03T22:16:01.983Z,0.13
2023-02-03T22:18:28.500Z,0.15
2023-02-03T22:20:54.931Z,0.10
2023-02-03T22:23:21.941Z,-0.02
2023-02-03T22:25:49.162Z,-0.01
2023-02-03T22:28:15.660Z,-0.03
2023-02-03T22:30:42.317Z,0.02
2023-02-03T22:33:08.849Z,-0.04
2023-02-03T22:35:35.475Z,0.03
2023-02-03T22:38:01.948Z,0.01
2023-02-03T22:40:28.878Z,0.00
2023-02-03T22:42:55.586Z,-0.09
2023-02-03T22:45:22.172Z,0.00
2023-02-03T22:47:48.575Z,-0.03
2023-02-03T22:50:17.320Z,-0.12
2023-02-03T22:52:44.114Z,-0.11
2023-02-03T22:55:10.824Z,-0.20
2023-02-03T22:57:38.161Z,-0.22
2023-02-03T23:00:11.019Z,-0.21
2023-02-03T23:02:40.936Z,-0.08
2023-02-03T23:05:09.345Z,-0.14
2023-02-03T23:07:37.229Z,-0.19
2023-02-03T23:10:05.237Z,-0.18
2023-02-03T23:12:31.767Z,-0.17
2023-02-03T23:14:58.426Z,-0.26
2023-02-03T23:17:25.315Z,-0.27
2023-02-03T23:19:51.757Z,-0.22
2023-02-03T23:22:18.287Z,-0.26
2023-02-03T23:24:45.756Z,-0.29
2023-02-03T23:27:12.571Z,-0.26
2023-02-03T23:29:39.235Z,-0.38
2023-02-03T23:32:06.271Z,-0.32
2023-02-03T23:34:51.908Z,-0.28
2023-02-03T23:37:19.055Z,-0.23
2023-02-03T23:39:45.515Z,-0.31
2023-02-03T23:42:11.937Z,-0.31
2023-02-03T23:44:38.436Z,-0.20
2023-02-03T23:47:05.130Z,-0.21
2023-02-03T23:49:31.531Z,-0.33
2023-02-03T23:51:58.253Z,-0.36
2023-02-03T23:54:25.439Z,-0.29
2023-02-03T23:56:52.918Z,-0.31
2023-02-03T23:59:19.986Z,-0.33
